sensor_id;sensor_type;location;lat;lon;timestamp;P1;durP1;ratioP1;P2;durP2;ratioP2
63008;SDS011;49099;28.428;-16.488;2023-07-13T00:01:56;50.17;;;9.68;;
63008;SDS011;49099;28.428;-16.488;2023-07-13T00:04:24;56.22;;;9.57;;
63008;SDS011;49099;28.428;-16.488;2023-07-13T00:06:52;44.40;;;8.88;;
63008;SDS011;49099;28.428;-16.488;2023-07-13T00:09:20;59.50;;;10.00;;
63008;SDS011;49099;28.428;-16.488;2023-07-13T00:11:54;56.88;;;10.55;;
63008;SDS011;49099;28.428;-16.488;2023-07-13T00:14:24;56.13;;;10.70;;
63008;SDS011;49099;28.428;-16.488;2023-07-13T00:16:52;66.68;;;10.73;;
63008;SDS011;49099;28.428;-16.488;2023-07-13T00:19:20;51.60;;;9.68;;
63008;SDS011;49099;28.428;-16.488;2023-07-13T00:21:48;54.65;;;10.40;;
63008;SDS011;49099;28.428;-16.488;2023-07-13T00:24:16;44.38;;;8.48;;
63008;SDS011;49099;28.428;-16.488;2023-07-13T00:26:50;37.90;;;8.77;;
63008;SDS011;49099;28.428;-16.488;2023-07-13T00:29:18;34.90;;;7.93;;
63008;SDS011;49099;28.428;-16.488;2023-07-13T00:31:45;40.65;;;9.05;;
63008;SDS011;49099;28.428;-16.488;2023-07-13T00:34:12;44.88;;;8.65;;
63008;SDS011;49099;28.428;-16.488;2023-07-13T00:36:40;42.75;;;9.18;;
63008;SDS011;49099;28.428;-16.488;2023-07-13T00:39:07;39.88;;;7.78;;
63008;SDS011;49099;28.428;-16.488;2023-07-13T00:41:35;40.88;;;8.52;;
63008;SDS011;49099;28.428;-16.488;2023-07-13T00:44:03;40.50;;;8.70;;
63008;SDS011;49099;28.428;-16.488;2023-07-13T00:46:32;44.05;;;8.88;;
63008;SDS011;49099;28.428;-16.488;2023-07-13T00:49:01;32.08;;;7.38;;
63008;SDS011;49099;28.428;-16.488;2023-07-13T00:51:34;45.00;;;8.25;;
63008;SDS011;49099;28.428;-16.488;2023-07-13T00:54:07;34.95;;;8.20;;
63008;SDS011;49099;28.428;-16.488;2023-07-13T00:56:38;35.03;;;8.27;;
63008;SDS011;49099;28.428;-16.488;2023-07-13T00:59:07;35.00;;;8.48;;
63008;SDS011;49099;28.428;-16.488;2023-07-13T01:01:37;39.47;;;8.45;;
63008;SDS011;49099;28.428;-16.488;2023-07-13T01:04:06;35.42;;;7.75;;
63008;SDS011;49099;28.428;-16.488;2023-07-13T01:06:35;26.10;;;7.22;;
63008;SDS011;49099;28.428;-16.488;2023-07-13T01:09:04;35.35;;;7.18;;
63008;SDS011;49099;28.428;-16.488;2023-07-13T01:11:32;39.20;;;7.97;;
63008;SDS011;49099;28.428;-16.488;2023-07-13T01:13:59;35.30;;;8.02;;
63008;SDS011;49099;28.428;-16.488;2023-07-13T01:16:29;30.48;;;7.22;;
63008;SDS011;49099;28.428;-16.488;2023-07-13T01:19:02;29.88;;;6.88;;
63008;SDS011;49099;28.428;-16.488;2023-07-13T01:21:33;27.33;;;6.82;;
63008;SDS011;49099;28.428;-16.488;2023-07-13T01:24:01;27.20;;;6.55;;
63008;SDS011;49099;28.428;-16.488;2023-07-13T01:26:29;23.52;;;6.57;;
63008;SDS011;49099;28.428;-16.488;2023-07-13T01:28:56;31.23;;;7.25;;
63008;SDS011;49099;28.428;-16.488;2023-07-13T01:31:23;27.58;;;6.20;;
63008;SDS011;49099;28.428;-16.488;2023-07-13T01:33:50;37.15;;;8.07;;
63008;SDS011;49099;28.428;-16.488;2023-07-13T01:36:18;23.30;;;6.53;;
63008;SDS011;49099;28.428;-16.488;2023-07-13T01:38:47;40.97;;;7.60;;
63008;SDS011;49099;28.428;-16.488;2023-07-13T01:41:15;32.88;;;8.57;;
63008;SDS011;49099;28.428;-16.488;2023-07-13T01:43:42;37.65;;;7.40;;
63008;SDS011;49099;28.428;-16.488;2023-07-13T01:46:09;40.35;;;8.52;;
63008;SDS011;49099;28.428;-16.488;2023-07-13T01:48:49;48.33;;;9.02;;
63008;SDS011;49099;28.428;-16.488;2023-07-13T01:51:17;44.67;;;9.65;;
63008;SDS011;49099;28.428;-16.488;2023-07-13T01:53:46;45.92;;;9.70;;
63008;SDS011;49099;28.428;-16.488;2023-07-13T01:56:13;35.90;;;8.63;;
63008;SDS011;49099;28.428;-16.488;2023-07-13T01:58:40;35.90;;;8.35;;
63008;SDS011;49099;28.428;-16.488;2023-07-13T02:01:07;37.85;;;8.77;;
63008;SDS011;49099;28.428;-16.488;2023-07-13T02:03:34;43.60;;;9.48;;
63008;SDS011;49099;28.428;-16.488;2023-07-13T02:06:02;39.33;;;8.88;;
63008;SDS011;49099;28.428;-16.488;2023-07-13T02:08:31;35.20;;;8.90;;
63008;SDS011;49099;28.428;-16.488;2023-07-13T02:10:59;45.90;;;9.73;;
63008;SDS011;49099;28.428;-16.488;2023-07-13T02:13:29;30.23;;;7.75;;
63008;SDS011;49099;28.428;-16.488;2023-07-13T02:15:56;24.75;;;6.97;;
63008;SDS011;49099;28.428;-16.488;2023-07-13T02:18:23;24.75;;;6.50;;
63008;SDS011;49099;28.428;-16.488;2023-07-13T02:20:50;20.02;;;6.05;;
63008;SDS011;49099;28.428;-16.488;2023-07-13T02:23:17;27.02;;;6.72;;
63008;SDS011;49099;28.428;-16.488;2023-07-13T02:25:45;21.92;;;6.00;;
63008;SDS011;49099;28.428;-16.488;2023-07-13T02:28:13;23.65;;;5.97;;
63008;SDS011;49099;28.428;-16.488;2023-07-13T02:30:40;22.88;;;6.30;;
63008;SDS011;49099;28.428;-16.488;2023-07-13T02:33:07;33.08;;;6.72;;
63008;SDS011;49099;28.428;-16.488;2023-07-13T02:35:34;34.33;;;7.20;;
63008;SDS011;49099;28.428;-16.488;2023-07-13T02:38:01;33.88;;;6.57;;
63008;SDS011;49099;28.428;-16.488;2023-07-13T02:40:28;23.42;;;5.95;;
63008;SDS011;49099;28.428;-16.488;2023-07-13T02:42:55;23.08;;;6.32;;
63008;SDS011;49099;28.428;-16.488;2023-07-13T02:45:22;19.77;;;5.57;;
63008;SDS011;49099;28.428;-16.488;2023-07-13T02:47:50;25.55;;;6.03;;
63008;SDS011;49099;28.428;-16.488;2023-07-13T02:50:17;22.60;;;5.70;;
63008;SDS011;49099;28.428;-16.488;2023-07-13T02:52:44;24.83;;;5.90;;
63008;SDS011;49099;28.428;-16.488;2023-07-13T02:55:11;22.40;;;5.80;;
63008;SDS011;49099;28.428;-16.488;2023-07-13T02:57:39;29.15;;;6.03;;
63008;SDS011;49099;28.428;-16.488;2023-07-13T03:00:06;27.52;;;6.25;;
63008;SDS011;49099;28.428;-16.488;2023-07-13T03:02:34;17.75;;;5.28;;
63008;SDS011;49099;28.428;-16.488;2023-07-13T03:05:02;26.75;;;6.53;;
63008;SDS011;49099;28.428;-16.488;2023-07-13T03:07:29;24.33;;;6.15;;
63008;SDS011;49099;28.428;-16.488;2023-07-13T03:09:58;26.73;;;6.95;;
63008;SDS011;49099;28.428;-16.488;2023-07-13T03:12:25;20.33;;;5.65;;
63008;SDS011;49099;28.428;-16.488;2023-07-13T03:14:52;28.17;;;6.35;;
63008;SDS011;49099;28.428;-16.488;2023-07-13T03:17:19;24.10;;;6.30;;
63008;SDS011;49099;28.428;-16.488;2023-07-13T03:19:47;20.92;;;5.40;;
63008;SDS011;49099;28.428;-16.488;2023-07-13T03:22:16;19.52;;;5.80;;
63008;SDS011;49099;28.428;-16.488;2023-07-13T03:24:45;23.95;;;6.15;;
63008;SDS011;49099;28.428;-16.488;2023-07-13T03:27:12;20.40;;;5.68;;
63008;SDS011;49099;28.428;-16.488;2023-07-13T03:29:40;23.52;;;6.18;;
63008;SDS011;49099;28.428;-16.488;2023-07-13T03:32:07;32.75;;;7.03;;
63008;SDS011;49099;28.428;-16.488;2023-07-13T03:34:34;37.38;;;8.10;;
63008;SDS011;49099;28.428;-16.488;2023-07-13T03:37:02;32.28;;;6.60;;
63008;SDS011;49099;28.428;-16.488;2023-07-13T03:39:29;31.10;;;6.57;;
63008;SDS011;49099;28.428;-16.488;2023-07-13T03:41:56;23.80;;;5.95;;
63008;SDS011;49099;28.428;-16.488;2023-07-13T03:44:23;30.63;;;6.78;;
63008;SDS011;49099;28.428;-16.488;2023-07-13T03:46:51;24.08;;;6.43;;
63008;SDS011;49099;28.428;-16.488;2023-07-13T03:49:18;25.80;;;6.07;;
63008;SDS011;49099;28.428;-16.488;2023-07-13T03:51:45;24.40;;;6.68;;
63008;SDS011;49099;28.428;-16.488;2023-07-13T03:54:13;24.73;;;6.28;;
63008;SDS011;49099;28.428;-16.488;2023-07-13T03:56:40;20.63;;;5.40;;
63008;SDS011;49099;28.428;-16.488;2023-07-13T03:59:07;18.80;;;5.20;;
63008;SDS011;49099;28.428;-16.488;2023-07-13T04:01:35;18.65;;;5.65;;
63008;SDS011;49099;28.428;-16.488;2023-07-13T04:04:03;15.95;;;4.82;;
63008;SDS011;49099;28.428;-16.488;2023-07-13T04:06:31;21.98;;;5.95;;
63008;SDS011;49099;28.428;-16.488;2023-07-13T04:08:59;24.90;;;6.53;;
63008;SDS011;49099;28.428;-16.488;2023-07-13T04:11:28;20.95;;;5.35;;
63008;SDS011;49099;28.428;-16.488;2023-07-13T04:13:58;19.83;;;5.05;;
63008;SDS011;49099;28.428;-16.488;2023-07-13T04:16:26;18.38;;;5.28;;
63008;SDS011;49099;28.428;-16.488;2023-07-13T04:18:54;20.92;;;5.65;;
63008;SDS011;49099;28.428;-16.488;2023-07-13T04:21:27;14.80;;;4.78;;
63008;SDS011;49099;28.428;-16.488;2023-07-13T04:23:56;22.45;;;5.60;;
63008;SDS011;49099;28.428;-16.488;2023-07-13T04:26:23;21.92;;;5.75;;
63008;SDS011;49099;28.428;-16.488;2023-07-13T04:28:50;23.33;;;5.82;;
63008;SDS011;49099;28.428;-16.488;2023-07-13T04:31:18;18.52;;;5.13;;
63008;SDS011;49099;28.428;-16.488;2023-07-13T04:33:47;29.45;;;5.60;;
63008;SDS011;49099;28.428;-16.488;2023-07-13T04:36:15;22.92;;;5.13;;
63008;SDS011;49099;28.428;-16.488;2023-07-13T04:38:43;26.83;;;6.10;;
63008;SDS011;49099;28.428;-16.488;2023-07-13T04:41:10;25.92;;;5.72;;
63008;SDS011;49099;28.428;-16.488;2023-07-13T04:43:39;23.38;;;5.63;;
63008;SDS011;49099;28.428;-16.488;2023-07-13T04:46:07;34.45;;;6.68;;
63008;SDS011;49099;28.428;-16.488;2023-07-13T04:48:44;24.38;;;5.55;;
63008;SDS011;49099;28.428;-16.488;2023-07-13T04:51:13;24.33;;;6.03;;
63008;SDS011;49099;28.428;-16.488;2023-07-13T04:53:41;35.63;;;6.97;;
63008;SDS011;49099;28.428;-16.488;2023-07-13T04:56:08;26.15;;;6.22;;
63008;SDS011;49099;28.428;-16.488;2023-07-13T04:58:35;29.13;;;6.65;;
63008;SDS011;49099;28.428;-16.488;2023-07-13T05:01:03;28.17;;;5.75;;
63008;SDS011;49099;28.428;-16.488;2023-07-13T05:03:32;24.05;;;4.88;;
63008;SDS011;49099;28.428;-16.488;2023-07-13T05:06:02;16.48;;;4.40;;
63008;SDS011;49099;28.428;-16.488;2023-07-13T05:08:31;16.67;;;4.28;;
63008;SDS011;49099;28.428;-16.488;2023-07-13T05:11:02;19.48;;;5.10;;
63008;SDS011;49099;28.428;-16.488;2023-07-13T05:13:31;18.50;;;4.85;;
63008;SDS011;49099;28.428;-16.488;2023-07-13T05:15:59;20.83;;;5.05;;
63008;SDS011;49099;28.428;-16.488;2023-07-13T05:18:33;24.23;;;5.28;;
63008;SDS011;49099;28.428;-16.488;2023-07-13T05:21:04;20.50;;;4.00;;
63008;SDS011;49099;28.428;-16.488;2023-07-13T05:23:34;21.27;;;5.30;;
63008;SDS011;49099;28.428;-16.488;2023-07-13T05:26:02;18.45;;;4.88;;
63008;SDS011;49099;28.428;-16.488;2023-07-13T05:28:35;25.17;;;6.60;;
63008;SDS011;49099;28.428;-16.488;2023-07-13T05:31:03;32.35;;;6.63;;
63008;SDS011;49099;28.428;-16.488;2023-07-13T05:33:30;25.55;;;5.60;;
63008;SDS011;49099;28.428;-16.488;2023-07-13T05:35:58;19.83;;;6.00;;
63008;SDS011;49099;28.428;-16.488;2023-07-13T05:38:27;16.13;;;4.60;;
63008;SDS011;49099;28.428;-16.488;2023-07-13T05:40:54;25.80;;;6.72;;
63008;SDS011;49099;28.428;-16.488;2023-07-13T05:43:23;18.27;;;5.32;;
63008;SDS011;49099;28.428;-16.488;2023-07-13T05:45:54;17.33;;;5.30;;
63008;SDS011;49099;28.428;-16.488;2023-07-13T05:48:22;26.23;;;5.22;;
63008;SDS011;49099;28.428;-16.488;2023-07-13T05:50:50;15.10;;;4.43;;
63008;SDS011;49099;28.428;-16.488;2023-07-13T05:53:17;21.40;;;5.47;;
63008;SDS011;49099;28.428;-16.488;2023-07-13T05:55:45;19.33;;;4.53;;
63008;SDS011;49099;28.428;-16.488;2023-07-13T05:58:17;16.42;;;4.15;;
63008;SDS011;49099;28.428;-16.488;2023-07-13T06:00:45;19.70;;;5.00;;
63008;SDS011;49099;28.428;-16.488;2023-07-13T06:03:12;24.83;;;5.00;;
63008;SDS011;49099;28.428;-16.488;2023-07-13T06:05:39;20.63;;;4.40;;
63008;SDS011;49099;28.428;-16.488;2023-07-13T06:08:07;18.67;;;4.65;;
63008;SDS011;49099;28.428;-16.488;2023-07-13T06:10:35;12.85;;;4.30;;
63008;SDS011;49099;28.428;-16.488;2023-07-13T06:13:03;15.07;;;4.47;;
63008;SDS011;49099;28.428;-16.488;2023-07-13T06:15:30;18.20;;;4.40;;
63008;SDS011;49099;28.428;-16.488;2023-07-13T06:17:57;17.38;;;4.65;;
63008;SDS011;49099;28.428;-16.488;2023-07-13T06:20:25;21.23;;;4.80;;
63008;SDS011;49099;28.428;-16.488;2023-07-13T06:22:52;21.20;;;5.05;;
63008;SDS011;49099;28.428;-16.488;2023-07-13T06:25:19;26.10;;;5.95;;
63008;SDS011;49099;28.428;-16.488;2023-07-13T06:27:47;20.58;;;5.30;;
63008;SDS011;49099;28.428;-16.488;2023-07-13T06:30:14;22.45;;;5.25;;
63008;SDS011;49099;28.428;-16.488;2023-07-13T06:32:41;24.27;;;5.03;;
63008;SDS011;49099;28.428;-16.488;2023-07-13T06:35:09;21.52;;;5.32;;
63008;SDS011;49099;28.428;-16.488;2023-07-13T06:37:39;21.42;;;5.35;;
63008;SDS011;49099;28.428;-16.488;2023-07-13T06:40:06;30.55;;;5.72;;
63008;SDS011;49099;28.428;-16.488;2023-07-13T06:42:35;17.30;;;4.97;;
63008;SDS011;49099;28.428;-16.488;2023-07-13T06:45:02;21.10;;;5.43;;
63008;SDS011;49099;28.428;-16.488;2023-07-13T06:47:29;17.42;;;4.70;;
63008;SDS011;49099;28.428;-16.488;2023-07-13T06:49:59;20.00;;;5.70;;
63008;SDS011;49099;28.428;-16.488;2023-07-13T06:52:27;25.95;;;5.10;;
63008;SDS011;49099;28.428;-16.488;2023-07-13T06:54:54;19.60;;;4.93;;
63008;SDS011;49099;28.428;-16.488;2023-07-13T06:57:21;16.73;;;4.15;;
63008;SDS011;49099;28.428;-16.488;2023-07-13T06:59:49;21.67;;;4.95;;
63008;SDS011;49099;28.428;-16.488;2023-07-13T07:02:16;20.30;;;4.82;;
63008;SDS011;49099;28.428;-16.488;2023-07-13T07:04:43;18.73;;;4.82;;
63008;SDS011;49099;28.428;-16.488;2023-07-13T07:07:10;20.83;;;4.18;;
63008;SDS011;49099;28.428;-16.488;2023-07-13T07:09:37;23.45;;;4.70;;
63008;SDS011;49099;28.428;-16.488;2023-07-13T07:12:05;23.17;;;4.68;;
63008;SDS011;49099;28.428;-16.488;2023-07-13T07:14:32;24.98;;;4.97;;
63008;SDS011;49099;28.428;-16.488;2023-07-13T07:17:00;27.10;;;5.78;;
63008;SDS011;49099;28.428;-16.488;2023-07-13T07:19:29;22.00;;;5.55;;
63008;SDS011;49099;28.428;-16.488;2023-07-13T07:21:57;26.42;;;5.97;;
63008;SDS011;49099;28.428;-16.488;2023-07-13T07:24:24;25.30;;;6.05;;
63008;SDS011;49099;28.428;-16.488;2023-07-13T07:26:51;30.48;;;6.00;;
63008;SDS011;49099;28.428;-16.488;2023-07-13T07:29:21;35.25;;;7.05;;
63008;SDS011;49099;28.428;-16.488;2023-07-13T07:31:52;41.60;;;7.28;;
63008;SDS011;49099;28.428;-16.488;2023-07-13T07:34:22;37.08;;;6.68;;
63008;SDS011;49099;28.428;-16.488;2023-07-13T07:36:49;29.73;;;6.60;;
63008;SDS011;49099;28.428;-16.488;2023-07-13T07:39:19;34.97;;;7.00;;
63008;SDS011;49099;28.428;-16.488;2023-07-13T07:41:49;29.60;;;6.22;;
63008;SDS011;49099;28.428;-16.488;2023-07-13T07:44:19;38.72;;;7.53;;
63008;SDS011;49099;28.428;-16.488;2023-07-13T07:46:47;40.35;;;7.18;;
63008;SDS011;49099;28.428;-16.488;2023-07-13T07:49:14;38.53;;;7.40;;
63008;SDS011;49099;28.428;-16.488;2023-07-13T07:51:42;29.77;;;7.25;;
63008;SDS011;49099;28.428;-16.488;2023-07-13T07:54:09;34.47;;;6.18;;
63008;SDS011;49099;28.428;-16.488;2023-07-13T07:56:44;34.63;;;7.07;;
63008;SDS011;49099;28.428;-16.488;2023-07-13T07:59:32;40.80;;;7.95;;
63008;SDS011;49099;28.428;-16.488;2023-07-13T08:02:19;46.50;;;7.75;;
63008;SDS011;49099;28.428;-16.488;2023-07-13T08:04:49;44.67;;;8.68;;
63008;SDS011;49099;28.428;-16.488;2023-07-13T08:07:19;66.22;;;10.85;;
63008;SDS011;49099;28.428;-16.488;2023-07-13T08:09:46;57.75;;;9.35;;
63008;SDS011;49099;28.428;-16.488;2023-07-13T08:12:13;76.03;;;12.15;;
63008;SDS011;49099;28.428;-16.488;2023-07-13T08:14:43;69.13;;;11.82;;
63008;SDS011;49099;28.428;-16.488;2023-07-13T08:17:21;50.90;;;8.98;;
63008;SDS011;49099;28.428;-16.488;2023-07-13T08:19:48;56.70;;;9.10;;
63008;SDS011;49099;28.428;-16.488;2023-07-13T08:22:16;47.42;;;8.50;;
63008;SDS011;49099;28.428;-16.488;2023-07-13T08:24:44;39.58;;;8.48;;
63008;SDS011;49099;28.428;-16.488;2023-07-13T08:27:11;56.08;;;10.20;;
63008;SDS011;49099;28.428;-16.488;2023-07-13T08:29:39;41.17;;;8.15;;
63008;SDS011;49099;28.428;-16.488;2023-07-13T08:32:06;47.40;;;8.50;;
63008;SDS011;49099;28.428;-16.488;2023-07-13T08:34:36;53.53;;;9.85;;
63008;SDS011;49099;28.428;-16.488;2023-07-13T08:37:03;49.45;;;9.35;;
63008;SDS011;49099;28.428;-16.488;2023-07-13T08:39:31;44.33;;;9.98;;
63008;SDS011;49099;28.428;-16.488;2023-07-13T08:42:00;51.67;;;9.05;;
63008;SDS011;49099;28.428;-16.488;2023-07-13T08:45:19;49.63;;;9.27;;
63008;SDS011;49099;28.428;-16.488;2023-07-13T08:47:30;33.80;;;8.20;;
63008;SDS011;49099;28.428;-16.488;2023-07-13T08:50:02;35.22;;;8.00;;
63008;SDS011;49099;28.428;-16.488;2023-07-13T08:55:09;41.47;;;8.88;;
63008;SDS011;49099;28.428;-16.488;2023-07-13T08:57:41;53.50;;;9.90;;
63008;SDS011;49099;28.428;-16.488;2023-07-13T09:00:10;50.80;;;8.90;;
63008;SDS011;49099;28.428;-16.488;2023-07-13T09:02:45;51.17;;;8.60;;
63008;SDS011;49099;28.428;-16.488;2023-07-13T09:05:30;58.20;;;9.65;;
63008;SDS011;49099;28.428;-16.488;2023-07-13T09:10:55;56.25;;;9.20;;
63008;SDS011;49099;28.428;-16.488;2023-07-13T09:13:44;46.53;;;9.00;;
63008;SDS011;49099;28.428;-16.488;2023-07-13T09:16:26;52.92;;;9.52;;
63008;SDS011;49099;28.428;-16.488;2023-07-13T09:18:56;62.72;;;10.10;;
63008;SDS011;49099;28.428;-16.488;2023-07-13T09:21:30;62.03;;;9.88;;
63008;SDS011;49099;28.428;-16.488;2023-07-13T09:24:03;48.38;;;9.38;;
63008;SDS011;49099;28.428;-16.488;2023-07-13T09:27:12;47.72;;;8.15;;
63008;SDS011;49099;28.428;-16.488;2023-07-13T09:29:51;44.38;;;8.80;;
63008;SDS011;49099;28.428;-16.488;2023-07-13T09:32:28;56.33;;;9.80;;
63008;SDS011;49099;28.428;-16.488;2023-07-13T09:34:56;47.28;;;9.35;;
63008;SDS011;49099;28.428;-16.488;2023-07-13T09:37:27;47.10;;;9.07;;
63008;SDS011;49099;28.428;-16.488;2023-07-13T09:39:59;41.63;;;8.00;;
63008;SDS011;49099;28.428;-16.488;2023-07-13T09:42:31;43.70;;;8.77;;
63008;SDS011;49099;28.428;-16.488;2023-07-13T09:45:00;41.97;;;8.77;;
63008;SDS011;49099;28.428;-16.488;2023-07-13T09:47:38;43.45;;;8.02;;
63008;SDS011;49099;28.428;-16.488;2023-07-13T09:50:14;47.70;;;9.43;;
63008;SDS011;49099;28.428;-16.488;2023-07-13T09:52:46;52.85;;;8.82;;
63008;SDS011;49099;28.428;-16.488;2023-07-13T09:55:32;42.72;;;9.02;;
63008;SDS011;49099;28.428;-16.488;2023-07-13T09:58:25;39.08;;;8.52;;
63008;SDS011;49099;28.428;-16.488;2023-07-13T10:00:59;37.95;;;8.20;;
63008;SDS011;49099;28.428;-16.488;2023-07-13T10:03:35;38.53;;;7.63;;
63008;SDS011;49099;28.428;-16.488;2023-07-13T10:06:15;43.42;;;8.95;;
63008;SDS011;49099;28.428;-16.488;2023-07-13T10:08:45;52.50;;;9.38;;
63008;SDS011;49099;28.428;-16.488;2023-07-13T10:11:18;52.15;;;10.52;;
63008;SDS011;49099;28.428;-16.488;2023-07-13T10:14:12;41.53;;;8.23;;
63008;SDS011;49099;28.428;-16.488;2023-07-13T10:16:41;48.58;;;10.73;;
63008;SDS011;49099;28.428;-16.488;2023-07-13T10:19:24;51.90;;;9.25;;
63008;SDS011;49099;28.428;-16.488;2023-07-13T10:24:38;44.33;;;8.95;;
63008;SDS011;49099;28.428;-16.488;2023-07-13T10:27:18;49.20;;;8.68;;
63008;SDS011;49099;28.428;-16.488;2023-07-13T10:32:28;42.13;;;8.57;;
63008;SDS011;49099;28.428;-16.488;2023-07-13T10:34:59;49.72;;;8.75;;
63008;SDS011;49099;28.428;-16.488;2023-07-13T10:37:29;39.53;;;7.63;;
63008;SDS011;49099;28.428;-16.488;2023-07-13T10:40:00;47.30;;;8.85;;
63008;SDS011;49099;28.428;-16.488;2023-07-13T10:42:35;43.47;;;8.40;;
63008;SDS011;49099;28.428;-16.488;2023-07-13T10:45:13;48.28;;;9.15;;
63008;SDS011;49099;28.428;-16.488;2023-07-13T10:47:43;43.10;;;8.50;;
63008;SDS011;49099;28.428;-16.488;2023-07-13T10:50:19;52.75;;;9.20;;
63008;SDS011;49099;28.428;-16.488;2023-07-13T10:52:49;39.92;;;7.55;;
63008;SDS011;49099;28.428;-16.488;2023-07-13T10:58:33;40.13;;;8.07;;
63008;SDS011;49099;28.428;-16.488;2023-07-13T11:03:49;48.72;;;8.93;;
63008;SDS011;49099;28.428;-16.488;2023-07-13T11:06:39;34.63;;;8.23;;
63008;SDS011;49099;28.428;-16.488;2023-07-13T11:12:00;31.25;;;7.13;;
63008;SDS011;49099;28.428;-16.488;2023-07-13T11:14:42;28.02;;;7.15;;
63008;SDS011;49099;28.428;-16.488;2023-07-13T11:17:46;36.50;;;8.02;;
63008;SDS011;49099;28.428;-16.488;2023-07-13T11:28:03;38.72;;;7.55;;
63008;SDS011;49099;28.428;-16.488;2023-07-13T11:33:22;35.67;;;7.65;;
63008;SDS011;49099;28.428;-16.488;2023-07-13T11:36:17;31.23;;;7.10;;
63008;SDS011;49099;28.428;-16.488;2023-07-13T11:44:06;32.28;;;7.45;;
63008;SDS011;49099;28.428;-16.488;2023-07-13T11:46:45;36.35;;;7.97;;
63008;SDS011;49099;28.428;-16.488;2023-07-13T11:49:19;34.75;;;7.05;;
63008;SDS011;49099;28.428;-16.488;2023-07-13T11:51:50;34.15;;;7.50;;
63008;SDS011;49099;28.428;-16.488;2023-07-13T11:54:31;30.70;;;6.60;;
63008;SDS011;49099;28.428;-16.488;2023-07-13T11:57:07;34.88;;;7.28;;
63008;SDS011;49099;28.428;-16.488;2023-07-13T11:59:39;35.25;;;7.78;;
63008;SDS011;49099;28.428;-16.488;2023-07-13T12:02:15;41.03;;;8.35;;
63008;SDS011;49099;28.428;-16.488;2023-07-13T12:04:50;35.42;;;7.28;;
63008;SDS011;49099;28.428;-16.488;2023-07-13T12:07:19;33.08;;;7.57;;
63008;SDS011;49099;28.428;-16.488;2023-07-13T12:09:46;24.95;;;6.82;;
63008;SDS011;49099;28.428;-16.488;2023-07-13T12:12:18;32.03;;;7.75;;
63008;SDS011;49099;28.428;-16.488;2023-07-13T12:14:51;31.90;;;7.63;;
63008;SDS011;49099;28.428;-16.488;2023-07-13T12:17:19;33.33;;;7.00;;
63008;SDS011;49099;28.428;-16.488;2023-07-13T12:19:50;32.92;;;7.22;;
63008;SDS011;49099;28.428;-16.488;2023-07-13T12:22:20;41.65;;;8.07;;
63008;SDS011;49099;28.428;-16.488;2023-07-13T12:24:49;87.50;;;12.55;;
63008;SDS011;49099;28.428;-16.488;2023-07-13T12:27:23;29.17;;;7.20;;
63008;SDS011;49099;28.428;-16.488;2023-07-13T12:30:03;37.45;;;7.70;;
63008;SDS011;49099;28.428;-16.488;2023-07-13T12:32:32;37.90;;;7.20;;
63008;SDS011;49099;28.428;-16.488;2023-07-13T12:35:38;39.33;;;7.18;;
63008;SDS011;49099;28.428;-16.488;2023-07-13T12:37:57;39.65;;;7.40;;
63008;SDS011;49099;28.428;-16.488;2023-07-13T12:40:31;37.88;;;7.25;;
63008;SDS011;49099;28.428;-16.488;2023-07-13T12:43:02;40.20;;;7.60;;
63008;SDS011;49099;28.428;-16.488;2023-07-13T12:45:33;30.92;;;7.30;;
63008;SDS011;49099;28.428;-16.488;2023-07-13T12:48:05;37.85;;;7.55;;
63008;SDS011;49099;28.428;-16.488;2023-07-13T12:50:40;38.42;;;7.85;;
63008;SDS011;49099;28.428;-16.488;2023-07-13T12:53:13;38.83;;;7.82;;
63008;SDS011;49099;28.428;-16.488;2023-07-13T12:55:44;31.45;;;7.05;;
63008;SDS011;49099;28.428;-16.488;2023-07-13T12:58:25;33.45;;;6.80;;
63008;SDS011;49099;28.428;-16.488;2023-07-13T13:00:55;30.88;;;7.22;;
63008;SDS011;49099;28.428;-16.488;2023-07-13T13:03:31;35.65;;;7.25;;
63008;SDS011;49099;28.428;-16.488;2023-07-13T13:08:32;33.30;;;7.15;;
63008;SDS011;49099;28.428;-16.488;2023-07-13T13:11:01;38.88;;;7.85;;
63008;SDS011;49099;28.428;-16.488;2023-07-13T13:13:29;38.08;;;7.78;;
63008;SDS011;49099;28.428;-16.488;2023-07-13T13:16:00;30.95;;;6.75;;
63008;SDS011;49099;28.428;-16.488;2023-07-13T13:18:32;36.67;;;7.10;;
63008;SDS011;49099;28.428;-16.488;2023-07-13T13:20:59;31.10;;;7.50;;
63008;SDS011;49099;28.428;-16.488;2023-07-13T13:23:27;31.80;;;7.28;;
63008;SDS011;49099;28.428;-16.488;2023-07-13T13:25:54;33.15;;;7.45;;
63008;SDS011;49099;28.428;-16.488;2023-07-13T13:28:22;33.97;;;7.25;;
63008;SDS011;49099;28.428;-16.488;2023-07-13T13:30:49;32.45;;;7.15;;
63008;SDS011;49099;28.428;-16.488;2023-07-13T13:33:19;33.30;;;7.00;;
63008;SDS011;49099;28.428;-16.488;2023-07-13T13:35:47;35.28;;;7.53;;
63008;SDS011;49099;28.428;-16.488;2023-07-13T13:38:19;38.75;;;7.75;;
63008;SDS011;49099;28.428;-16.488;2023-07-13T13:40:50;33.17;;;7.45;;
63008;SDS011;49099;28.428;-16.488;2023-07-13T13:45:45;37.10;;;7.60;;
63008;SDS011;49099;28.428;-16.488;2023-07-13T13:48:17;31.65;;;7.20;;
63008;SDS011;49099;28.428;-16.488;2023-07-13T13:50:47;31.35;;;7.20;;
63008;SDS011;49099;28.428;-16.488;2023-07-13T13:53:15;34.45;;;7.78;;
63008;SDS011;49099;28.428;-16.488;2023-07-13T13:55:42;37.40;;;7.55;;
63008;SDS011;49099;28.428;-16.488;2023-07-13T13:58:10;33.70;;;7.50;;
63008;SDS011;49099;28.428;-16.488;2023-07-13T14:00:37;25.42;;;6.25;;
63008;SDS011;49099;28.428;-16.488;2023-07-13T14:03:13;26.20;;;6.82;;
63008;SDS011;49099;28.428;-16.488;2023-07-13T14:05:43;28.73;;;7.00;;
63008;SDS011;49099;28.428;-16.488;2023-07-13T14:08:20;34.03;;;7.80;;
63008;SDS011;49099;28.428;-16.488;2023-07-13T14:10:49;33.92;;;6.82;;
63008;SDS011;49099;28.428;-16.488;2023-07-13T14:13:20;31.27;;;7.00;;
63008;SDS011;49099;28.428;-16.488;2023-07-13T14:15:53;35.47;;;7.47;;
63008;SDS011;49099;28.428;-16.488;2023-07-13T14:18:21;34.15;;;7.65;;
63008;SDS011;49099;28.428;-16.488;2023-07-13T14:20:48;33.20;;;7.45;;
63008;SDS011;49099;28.428;-16.488;2023-07-13T14:23:16;37.22;;;8.07;;
63008;SDS011;49099;28.428;-16.488;2023-07-13T14:25:45;33.88;;;7.47;;
63008;SDS011;49099;28.428;-16.488;2023-07-13T14:28:19;35.10;;;7.65;;
63008;SDS011;49099;28.428;-16.488;2023-07-13T14:30:49;34.17;;;7.88;;
63008;SDS011;49099;28.428;-16.488;2023-07-13T14:33:18;26.98;;;7.57;;
63008;SDS011;49099;28.428;-16.488;2023-07-13T14:35:45;28.38;;;7.35;;
63008;SDS011;49099;28.428;-16.488;2023-07-13T14:38:17;30.27;;;6.82;;
63008;SDS011;49099;28.428;-16.488;2023-07-13T14:40:46;32.05;;;7.07;;
63008;SDS011;49099;28.428;-16.488;2023-07-13T14:43:13;33.30;;;7.22;;
63008;SDS011;49099;28.428;-16.488;2023-07-13T14:45:49;36.45;;;7.88;;
63008;SDS011;49099;28.428;-16.488;2023-07-13T14:48:18;40.35;;;7.28;;
63008;SDS011;49099;28.428;-16.488;2023-07-13T14:50:55;35.60;;;6.78;;
63008;SDS011;49099;28.428;-16.488;2023-07-13T14:53:27;32.35;;;7.13;;
63008;SDS011;49099;28.428;-16.488;2023-07-13T14:55:54;31.63;;;7.32;;
63008;SDS011;49099;28.428;-16.488;2023-07-13T14:58:22;34.50;;;7.38;;
63008;SDS011;49099;28.428;-16.488;2023-07-13T15:00:50;28.50;;;6.82;;
63008;SDS011;49099;28.428;-16.488;2023-07-13T15:03:21;30.63;;;6.95;;
63008;SDS011;49099;28.428;-16.488;2023-07-13T15:05:51;33.33;;;7.10;;
63008;SDS011;49099;28.428;-16.488;2023-07-13T15:08:19;32.30;;;7.32;;